sensor_id;sensor_type;location;lat;lon;timestamp;P1;durP1;ratioP1;P2;durP2;ratioP2
6177;SDS011;3122;48.208;11.174;2022-12-05T00:02:36;21.43;;;10.67;;
6177;SDS011;3122;48.208;11.174;2022-12-05T00:07:36;24.40;;;11.20;;
6177;SDS011;3122;48.208;11.174;2022-12-05T00:12:38;23.63;;;11.03;;
6177;SDS011;3122;48.208;11.174;2022-12-05T00:17:39;20.27;;;10.00;;
6177;SDS011;3122;48.208;11.174;2022-12-05T00:22:40;20.93;;;9.43;;
6177;SDS011;3122;48.208;11.174;2022-12-05T00:27:40;24.37;;;10.43;;
6177;SDS011;3122;48.208;11.174;2022-12-05T00:32:41;26.07;;;11.70;;
6177;SDS011;3122;48.208;11.174;2022-12-05T00:37:41;22.80;;;10.87;;
6177;SDS011;3122;48.208;11.174;2022-12-05T00:42:42;26.93;;;11.33;;
6177;SDS011;3122;48.208;11.174;2022-12-05T00:47:42;27.93;;;11.90;;
6177;SDS011;3122;48.208;11.174;2022-12-05T00:52:43;25.57;;;11.90;;
6177;SDS011;3122;48.208;11.174;2022-12-05T00:57:43;25.53;;;11.67;;
6177;SDS011;3122;48.208;11.174;2022-12-05T01:02:44;27.17;;;12.40;;
6177;SDS011;3122;48.208;11.174;2022-12-05T01:07:44;25.10;;;11.30;;
6177;SDS011;3122;48.208;11.174;2022-12-05T01:12:45;31.47;;;11.97;;
6177;SDS011;3122;48.208;11.174;2022-12-05T01:17:45;28.83;;;12.60;;
6177;SDS011;3122;48.208;11.174;2022-12-05T01:22:46;25.03;;;11.90;;
6177;SDS011;3122;48.208;11.174;2022-12-05T01:27:46;28.57;;;11.90;;
6177;SDS011;3122;48.208;11.174;2022-12-05T01:32:47;30.03;;;12.47;;
6177;SDS011;3122;48.208;11.174;2022-12-05T01:37:47;30.73;;;12.80;;
6177;SDS011;3122;48.208;11.174;2022-12-05T01:42:48;26.33;;;11.93;;
6177;SDS011;3122;48.208;11.174;2022-12-05T01:47:48;33.20;;;13.67;;
6177;SDS011;3122;48.208;11.174;2022-12-05T01:52:49;36.23;;;14.00;;
6177;SDS011;3122;48.208;11.174;2022-12-05T01:57:50;31.70;;;13.73;;
6177;SDS011;3122;48.208;11.174;2022-12-05T02:02:53;31.47;;;12.83;;
6177;SDS011;3122;48.208;11.174;2022-12-05T02:08:00;26.67;;;12.90;;
6177;SDS011;3122;48.208;11.174;2022-12-05T02:18:40;21.53;;;11.83;;
6177;SDS011;3122;48.208;11.174;2022-12-05T02:24:06;22.37;;;11.80;;
6177;SDS011;3122;48.208;11.174;2022-12-05T02:40:14;24.50;;;11.70;;
6177;SDS011;3122;48.208;11.174;2022-12-05T02:45:24;21.43;;;11.50;;
6177;SDS011;3122;48.208;11.174;2022-12-05T02:50:30;26.23;;;12.30;;
6177;SDS011;3122;48.208;11.174;2022-12-05T02:55:33;23.43;;;11.40;;
6177;SDS011;3122;48.208;11.174;2022-12-05T03:00:36;25.07;;;12.00;;
6177;SDS011;3122;48.208;11.174;2022-12-05T03:10:42;23.63;;;10.67;;
6177;SDS011;3122;48.208;11.174;2022-12-05T03:15:46;22.53;;;10.90;;
6177;SDS011;3122;48.208;11.174;2022-12-05T03:20:58;26.40;;;11.00;;
6177;SDS011;3122;48.208;11.174;2022-12-05T03:37:12;24.53;;;11.03;;
6177;SDS011;3122;48.208;11.174;2022-12-05T03:42:23;30.50;;;12.07;;
6177;SDS011;3122;48.208;11.174;2022-12-05T03:47:52;28.33;;;12.00;;
6177;SDS011;3122;48.208;11.174;2022-12-05T03:52:57;26.53;;;11.87;;
6177;SDS011;3122;48.208;11.174;2022-12-05T03:58:11;31.50;;;12.27;;
6177;SDS011;3122;48.208;11.174;2022-12-05T04:03:20;27.73;;;12.47;;
6177;SDS011;3122;48.208;11.174;2022-12-05T04:08:39;34.83;;;12.57;;
6177;SDS011;3122;48.208;11.174;2022-12-05T04:14:06;38.50;;;14.90;;
6177;SDS011;3122;48.208;11.174;2022-12-05T04:19:16;30.00;;;12.17;;
6177;SDS011;3122;48.208;11.174;2022-12-05T04:24:26;27.50;;;11.80;;
6177;SDS011;3122;48.208;11.174;2022-12-05T04:29:51;29.60;;;13.37;;
6177;SDS011;3122;48.208;11.174;2022-12-05T04:35:02;54.27;;;26.30;;
6177;SDS011;3122;48.208;11.174;2022-12-05T04:40:15;32.77;;;15.60;;
6177;SDS011;3122;48.208;11.174;2022-12-05T04:45:20;41.17;;;19.57;;
6177;SDS011;3122;48.208;11.174;2022-12-05T04:50:24;45.50;;;20.30;;
6177;SDS011;3122;48.208;11.174;2022-12-05T04:55:27;43.10;;;18.90;;
6177;SDS011;3122;48.208;11.174;2022-12-05T05:00:31;27.23;;;13.53;;
6177;SDS011;3122;48.208;11.174;2022-12-05T05:05:54;29.13;;;13.70;;
6177;SDS011;3122;48.208;11.174;2022-12-05T05:16:12;27.50;;;12.40;;
6177;SDS011;3122;48.208;11.174;2022-12-05T05:21:28;30.40;;;13.30;;
6177;SDS011;3122;48.208;11.174;2022-12-05T05:26:34;28.83;;;13.30;;
6177;SDS011;3122;48.208;11.174;2022-12-05T05:31:36;27.27;;;12.80;;
6177;SDS011;3122;48.208;11.174;2022-12-05T05:36:37;24.13;;;12.90;;
6177;SDS011;3122;48.208;11.174;2022-12-05T05:41:38;28.10;;;12.83;;
6177;SDS011;3122;48.208;11.174;2022-12-05T05:46:39;24.67;;;11.90;;
6177;SDS011;3122;48.208;11.174;2022-12-05T05:51:40;27.10;;;11.77;;
6177;SDS011;3122;48.208;11.174;2022-12-05T05:56:41;25.57;;;12.80;;
6177;SDS011;3122;48.208;11.174;2022-12-05T06:01:41;30.47;;;13.30;;
6177;SDS011;3122;48.208;11.174;2022-12-05T06:06:42;25.10;;;12.33;;
6177;SDS011;3122;48.208;11.174;2022-12-05T06:11:42;25.63;;;12.53;;
6177;SDS011;3122;48.208;11.174;2022-12-05T06:16:43;23.13;;;12.10;;
6177;SDS011;3122;48.208;11.174;2022-12-05T06:21:43;26.67;;;13.17;;
6177;SDS011;3122;48.208;11.174;2022-12-05T06:26:44;24.80;;;12.47;;
6177;SDS011;3122;48.208;11.174;2022-12-05T06:31:44;22.50;;;11.20;;
6177;SDS011;3122;48.208;11.174;2022-12-05T06:36:45;22.67;;;11.30;;
6177;SDS011;3122;48.208;11.174;2022-12-05T06:41:46;19.27;;;10.70;;
6177;SDS011;3122;48.208;11.174;2022-12-05T06:46:47;22.67;;;11.50;;
6177;SDS011;3122;48.208;11.174;2022-12-05T06:51:48;17.67;;;9.23;;
6177;SDS011;3122;48.208;11.174;2022-12-05T06:56:49;16.40;;;9.37;;
6177;SDS011;3122;48.208;11.174;2022-12-05T07:01:49;24.80;;;11.93;;
6177;SDS011;3122;48.208;11.174;2022-12-05T07:06:50;22.13;;;11.10;;
6177;SDS011;3122;48.208;11.174;2022-12-05T07:11:52;17.90;;;9.00;;
6177;SDS011;3122;48.208;11.174;2022-12-05T07:16:52;18.03;;;10.53;;
6177;SDS011;3122;48.208;11.174;2022-12-05T07:21:53;22.00;;;9.90;;
6177;SDS011;3122;48.208;11.174;2022-12-05T07:26:53;22.47;;;10.97;;
6177;SDS011;3122;48.208;11.174;2022-12-05T07:31:54;20.57;;;11.03;;
6177;SDS011;3122;48.208;11.174;2022-12-05T07:36:54;18.70;;;10.27;;
6177;SDS011;3122;48.208;11.174;2022-12-05T07:41:55;16.43;;;10.00;;
6177;SDS011;3122;48.208;11.174;2022-12-05T07:46:56;17.77;;;9.40;;
6177;SDS011;3122;48.208;11.174;2022-12-05T07:51:57;19.60;;;9.63;;
6177;SDS011;3122;48.208;11.174;2022-12-05T07:56:57;18.33;;;9.87;;
6177;SDS011;3122;48.208;11.174;2022-12-05T08:01:58;21.83;;;10.23;;
6177;SDS011;3122;48.208;11.174;2022-12-05T08:06:58;18.67;;;9.97;;
6177;SDS011;3122;48.208;11.174;2022-12-05T08:11:59;18.00;;;10.23;;
6177;SDS011;3122;48.208;11.174;2022-12-05T08:17:00;19.77;;;11.30;;
6177;SDS011;3122;48.208;11.174;2022-12-05T08:22:00;22.37;;;12.57;;
6177;SDS011;3122;48.208;11.174;2022-12-05T08:27:01;20.03;;;11.60;;
6177;SDS011;3122;48.208;11.174;2022-12-05T08:32:03;19.43;;;11.40;;
6177;SDS011;3122;48.208;11.174;2022-12-05T08:37:04;24.77;;;12.97;;
6177;SDS011;3122;48.208;11.174;2022-12-05T08:42:04;22.27;;;11.47;;
6177;SDS011;3122;48.208;11.174;2022-12-05T08:47:05;21.10;;;10.57;;
6177;SDS011;3122;48.208;11.174;2022-12-05T08:52:06;18.13;;;10.73;;
6177;SDS011;3122;48.208;11.174;2022-12-05T08:57:06;22.13;;;11.60;;
6177;SDS011;3122;48.208;11.174;2022-12-05T09:02:07;23.63;;;14.23;;
6177;SDS011;3122;48.208;11.174;2022-12-05T09:07:09;21.93;;;13.70;;
6177;SDS011;3122;48.208;11.174;2022-12-05T09:12:09;17.87;;;10.50;;
6177;SDS011;3122;48.208;11.174;2022-12-05T09:17:10;16.07;;;9.50;;
6177;SDS011;3122;48.208;11.174;2022-12-05T09:22:10;16.50;;;9.60;;
6177;SDS011;3122;48.208;11.174;2022-12-05T09:27:11;23.97;;;11.20;;
6177;SDS011;3122;48.208;11.174;2022-12-05T09:32:11;16.50;;;9.87;;
6177;SDS011;3122;48.208;11.174;2022-12-05T09:37:12;15.27;;;8.63;;
6177;SDS011;3122;48.208;11.174;2022-12-05T09:47:31;16.37;;;10.10;;
6177;SDS011;3122;48.208;11.174;2022-12-05T09:52:35;22.30;;;12.53;;
6177;SDS011;3122;48.208;11.174;2022-12-05T09:57:39;18.07;;;10.00;;
6177;SDS011;3122;48.208;11.174;2022-12-05T10:02:57;16.07;;;9.10;;
6177;SDS011;3122;48.208;11.174;2022-12-05T10:23:52;18.43;;;11.27;;
6177;SDS011;3122;48.208;11.174;2022-12-05T10:29:06;16.50;;;10.20;;
6177;SDS011;3122;48.208;11.174;2022-12-05T10:34:27;16.90;;;9.47;;
6177;SDS011;3122;48.208;11.174;2022-12-05T10:39:39;15.63;;;9.07;;
6177;SDS011;3122;48.208;11.174;2022-12-05T10:44:40;16.73;;;10.03;;
6177;SDS011;3122;48.208;11.174;2022-12-05T10:49:41;18.07;;;11.40;;
6177;SDS011;3122;48.208;11.174;2022-12-05T10:54:46;17.20;;;10.03;;
6177;SDS011;3122;48.208;11.174;2022-12-05T10:59:53;16.30;;;10.77;;
6177;SDS011;3122;48.208;11.174;2022-12-05T11:04:55;19.10;;;11.30;;
6177;SDS011;3122;48.208;11.174;2022-12-05T11:09:58;19.53;;;11.97;;
6177;SDS011;3122;48.208;11.174;2022-12-05T11:30:28;18.73;;;10.57;;
6177;SDS011;3122;48.208;11.174;2022-12-05T11:35:29;18.03;;;10.40;;
6177;SDS011;3122;48.208;11.174;2022-12-05T11:40:33;18.90;;;10.93;;
6177;SDS011;3122;48.208;11.174;2022-12-05T11:50:46;18.97;;;10.80;;
6177;SDS011;3122;48.208;11.174;2022-12-05T12:17:51;8.10;;;6.40;;
6177;SDS011;3122;48.208;11.174;2022-12-05T12:23:07;11.20;;;6.93;;
6177;SDS011;3122;48.208;11.174;2022-12-05T12:33:27;7.17;;;5.20;;
6177;SDS011;3122;48.208;11.174;2022-12-05T12:44:10;7.77;;;5.33;;
6177;SDS011;3122;48.208;11.174;2022-12-05T13:10:42;8.17;;;5.73;;
6177;SDS011;3122;48.208;11.174;2022-12-05T13:15:51;7.67;;;5.17;;
6177;SDS011;3122;48.208;11.174;2022-12-05T13:20:58;7.60;;;5.10;;
6177;SDS011;3122;48.208;11.174;2022-12-05T13:26:06;8.37;;;5.80;;
6177;SDS011;3122;48.208;11.174;2022-12-05T13:31:09;6.40;;;4.80;;
6177;SDS011;3122;48.208;11.174;2022-12-05T13:36:17;5.97;;;5.10;;
6177;SDS011;3122;48.208;11.174;2022-12-05T13:41:39;7.33;;;5.57;;
6177;SDS011;3122;48.208;11.174;2022-12-05T13:46:59;11.77;;;6.37;;
6177;SDS011;3122;48.208;11.174;2022-12-05T13:52:09;10.07;;;6.80;;
6177;SDS011;3122;48.208;11.174;2022-12-05T14:12:51;7.87;;;6.07;;
6177;SDS011;3122;48.208;11.174;2022-12-05T14:18:02;10.00;;;7.30;;
6177;SDS011;3122;48.208;11.174;2022-12-05T14:28:44;11.93;;;7.63;;
6177;SDS011;3122;48.208;11.174;2022-12-05T14:34:12;12.30;;;8.33;;
6177;SDS011;3122;48.208;11.174;2022-12-05T14:44:34;10.53;;;7.47;;
6177;SDS011;3122;48.208;11.174;2022-12-05T14:55:10;15.23;;;10.47;;
6177;SDS011;3122;48.208;11.174;2022-12-05T15:00:19;9.33;;;7.80;;
6177;SDS011;3122;48.208;11.174;2022-12-05T15:05:25;12.37;;;7.60;;
6177;SDS011;3122;48.208;11.174;2022-12-05T15:10:33;10.10;;;7.90;;
6177;SDS011;3122;48.208;11.174;2022-12-05T15:15:41;17.90;;;12.40;;
6177;SDS011;3122;48.208;11.174;2022-12-05T15:21:12;10.17;;;7.70;;
6177;SDS011;3122;48.208;11.174;2022-12-05T15:36:47;6.47;;;5.23;;
6177;SDS011;3122;48.208;11.174;2022-12-05T15:41:55;17.70;;;10.17;;
6177;SDS011;3122;48.208;11.174;2022-12-05T15:46:56;31.77;;;15.40;;
6177;SDS011;3122;48.208;11.174;2022-12-05T15:52:14;16.03;;;9.73;;
6177;SDS011;3122;48.208;11.174;2022-12-05T15:57:23;13.70;;;9.30;;
6177;SDS011;3122;48.208;11.174;2022-12-05T16:03:06;29.33;;;14.90;;
6177;SDS011;3122;48.208;11.174;2022-12-05T16:08:19;22.50;;;13.90;;
6177;SDS011;3122;48.208;11.174;2022-12-05T16:13:21;17.00;;;11.87;;
6177;SDS011;3122;48.208;11.174;2022-12-05T16:18:30;14.80;;;11.00;;
6177;SDS011;3122;48.208;11.174;2022-12-05T16:23:31;13.00;;;10.23;;
6177;SDS011;3122;48.208;11.174;2022-12-05T16:28:33;20.27;;;12.00;;
6177;SDS011;3122;48.208;11.174;2022-12-05T16:33:33;15.07;;;10.20;;
6177;SDS011;3122;48.208;11.174;2022-12-05T16:38:34;6.23;;;5.10;;
6177;SDS011;3122;48.208;11.174;2022-12-05T16:48:36;4.67;;;4.27;;
6177;SDS011;3122;48.208;11.174;2022-12-05T16:53:37;3.97;;;3.50;;
6177;SDS011;3122;48.208;11.174;2022-12-05T16:58:42;3.57;;;3.27;;
6177;SDS011;3122;48.208;11.174;2022-12-05T17:03:43;5.00;;;3.80;;
6177;SDS011;3122;48.208;11.174;2022-12-05T17:08:44;6.20;;;3.90;;
6177;SDS011;3122;48.208;11.174;2022-12-05T17:13:47;3.90;;;3.53;;
6177;SDS011;3122;48.208;11.174;2022-12-05T17:18:49;6.07;;;4.23;;
6177;SDS011;3122;48.208;11.174;2022-12-05T17:23:50;5.63;;;4.77;;
6177;SDS011;3122;48.208;11.174;2022-12-05T17:28:51;5.17;;;4.60;;
6177;SDS011;3122;48.208;11.174;2022-12-05T17:33:52;4.50;;;4.10;;
6177;SDS011;3122;48.208;11.174;2022-12-05T17:38:53;4.30;;;3.90;;
6177;SDS011;3122;48.208;11.174;2022-12-05T17:43:54;5.63;;;4.13;;
6177;SDS011;3122;48.208;11.174;2022-12-05T17:48:54;5.60;;;4.50;;
6177;SDS011;3122;48.208;11.174;2022-12-05T17:53:55;5.37;;;4.30;;
6177;SDS011;3122;48.208;11.174;2022-12-05T17:58:55;5.17;;;4.17;;
6177;SDS011;3122;48.208;11.174;2022-12-05T18:03:56;4.30;;;3.90;;
6177;SDS011;3122;48.208;11.174;2022-12-05T18:08:56;7.10;;;5.47;;
6177;SDS011;3122;48.208;11.174;2022-12-05T18:13:57;6.07;;;5.00;;
6177;SDS011;3122;48.208;11.174;2022-12-05T18:18:58;6.60;;;5.60;;
6177;SDS011;3122;48.208;11.174;2022-12-05T18:24:00;6.27;;;5.00;;
6177;SDS011;3122;48.208;11.174;2022-12-05T18:29:00;7.47;;;5.57;;
6177;SDS011;3122;48.208;11.174;2022-12-05T18:34:01;6.63;;;5.57;;
6177;SDS011;3122;48.208;11.174;2022-12-05T18:39:02;6.90;;;5.37;;
6177;SDS011;3122;48.208;11.174;2022-12-05T18:44:03;17.73;;;11.93;;
6177;SDS011;3122;48.208;11.174;2022-12-05T18:49:03;11.17;;;7.73;;
6177;SDS011;3122;48.208;11.174;2022-12-05T18:54:05;4.47;;;3.70;;
6177;SDS011;3122;48.208;11.174;2022-12-05T18:59:06;4.57;;;4.10;;
6177;SDS011;3122;48.208;11.174;2022-12-05T19:04:12;7.57;;;6.80;;
6177;SDS011;3122;48.208;11.174;2022-12-05T19:09:15;10.03;;;8.80;;
6177;SDS011;3122;48.208;11.174;2022-12-05T19:14:17;8.17;;;5.20;;
6177;SDS011;3122;48.208;11.174;2022-12-05T19:19:18;8.37;;;5.83;;
6177;SDS011;3122;48.208;11.174;2022-12-05T19:24:19;9.23;;;6.50;;
6177;SDS011;3122;48.208;11.174;2022-12-05T19:29:20;10.40;;;7.13;;
6177;SDS011;3122;48.208;11.174;2022-12-05T19:34:21;11.33;;;7.37;;
6177;SDS011;3122;48.208;11.174;2022-12-05T19:39:23;9.70;;;6.77;;
6177;SDS011;3122;48.208;11.174;2022-12-05T19:44:28;12.60;;;6.17;;
6177;SDS011;3122;48.208;11.174;2022-12-05T19:49:29;7.50;;;6.43;;
6177;SDS011;3122;48.208;11.174;2022-12-05T19:54:29;7.57;;;6.10;;
6177;SDS011;3122;48.208;11.174;2022-12-05T19:59:30;9.37;;;6.60;;
6177;SDS011;3122;48.208;11.174;2022-12-05T20:04:30;12.53;;;7.70;;
6177;SDS011;3122;48.208;11.174;2022-12-05T20:09:31;9.33;;;6.13;;
6177;SDS011;3122;48.208;11.174;2022-12-05T20:14:33;10.30;;;7.30;;
6177;SDS011;3122;48.208;11.174;2022-12-05T20:19:33;10.03;;;7.37;;
6177;SDS011;3122;48.208;11.174;2022-12-05T20:24:34;9.63;;;7.20;;
6177;SDS011;3122;48.208;11.174;2022-12-05T20:29:35;18.00;;;11.53;;
6177;SDS011;3122;48.208;11.174;2022-12-05T20:34:37;14.00;;;9.80;;
6177;SDS011;3122;48.208;11.174;2022-12-05T20:39:38;14.13;;;9.70;;
6177;SDS011;3122;48.208;11.174;2022-12-05T20:44:38;10.43;;;6.87;;
6177;SDS011;3122;48.208;11.174;2022-12-05T20:49:39;10.03;;;6.77;;
6177;SDS011;3122;48.208;11.174;2022-12-05T20:54:39;7.87;;;6.20;;
6177;SDS011;3122;48.208;11.174;2022-12-05T20:59:40;6.97;;;5.30;;
6177;SDS011;3122;48.208;11.174;2022-12-05T21:04:41;8.27;;;6.10;;
6177;SDS011;3122;48.208;11.174;2022-12-05T21:09:41;8.97;;;5.90;;
6177;SDS011;3122;48.208;11.174;2022-12-05T21:14:42;8.23;;;5.60;;
6177;SDS011;3122;48.208;11.174;2022-12-05T21:19:42;10.10;;;6.83;;
6177;SDS011;3122;48.208;11.174;2022-12-05T21:24:44;10.30;;;6.77;;
6177;SDS011;3122;48.208;11.174;2022-12-05T21:29:45;13.17;;;7.80;;
6177;SDS011;3122;48.208;11.174;2022-12-05T21:34:45;17.23;;;9.50;;
6177;SDS011;3122;48.208;11.174;2022-12-05T21:39:46;12.57;;;8.23;;
6177;SDS011;3122;48.208;11.174;2022-12-05T21:44:46;10.47;;;6.93;;
6177;SDS011;3122;48.208;11.174;2022-12-05T21:49:47;15.33;;;7.93;;
6177;SDS011;3122;48.208;11.174;2022-12-05T21:54:47;9.90;;;7.27;;
6177;SDS011;3122;48.208;11.174;2022-12-05T21:59:48;8.80;;;7.00;;
6177;SDS011;3122;48.208;11.174;2022-12-05T22:04:48;9.43;;;6.60;;
6177;SDS011;3122;48.208;11.174;2022-12-05T22:09:49;11.47;;;7.83;;
6177;SDS011;3122;48.208;11.174;2022-12-05T22:14:49;8.53;;;7.23;;
6177;SDS011;3122;48.208;11.174;2022-12-05T22:19:50;9.13;;;6.97;;
6177;SDS011;3122;48.208;11.174;2022-12-05T22:24:51;9.67;;;7.27;;
6177;SDS011;3122;48.208;11.174;2022-12-05T22:29:51;14.43;;;9.93;;
6177;SDS011;3122;48.208;11.174;2022-12-05T22:34:52;14.27;;;9.70;;
6177;SDS011;3122;48.208;11.174;2022-12-05T22:39:52;12.90;;;8.50;;
6177;SDS011;3122;48.208;11.174;2022-12-05T22:44:53;11.23;;;8.50;;
6177;SDS011;3122;48.208;11.174;2022-12-05T22:49:53;12.63;;;9.07;;
6177;SDS011;3122;48.208;11.174;2022-12-05T22:54:54;12.33;;;8.30;;
6177;SDS011;3122;48.208;11.174;2022-12-05T22:59:54;11.93;;;8.27;;
6177;SDS011;3122;48.208;11.174;2022-12-05T23:04:55;12.27;;;8.23;;
6177;SDS011;3122;48.208;11.174;2022-12-05T23:09:55;12.90;;;8.87;;
6177;SDS011;3122;48.208;11.174;2022-12-05T23:14:56;11.97;;;7.80;;
6177;SDS011;3122;48.208;11.174;2022-12-05T23:19:57;11.83;;;7.97;;
6177;SDS011;3122;48.208;11.174;2022-12-05T23:24:58;10.80;;;7.73;;
6177;SDS011;3122;48.208;11.174;2022-12-05T23:29:58;10.73;;;8.03;;
6177;SDS011;3122;48.208;11.174;2022-12-05T23:34:59;11.57;;;7.63;;
6177;SDS011;3122;48.208;11.174;2022-12-05T23:39:59;11.67;;;7.80;;
6177;SDS011;3122;48.208;11.174;2022-12-05T23:45:00;11.93;;;9.10;;
6177;SDS011;3122;48.208;11.174;2022-12-05T23:50:00;13.17;;;9.33;;
6177;SDS011;3122;48.208;11.174;2022-12-05T23:55:01;17.63;;;10.40;;
